Time;durP1;ratioP1;P1;durP2;ratioP2;P2;SDS_P1;SDS_P2;PMS_P1;PMS_P2;Temp;Humidity;BMP_temperature;BMP_pressure;BME280_temperature;BME280_humidity;BME280_pressure;Samples;Min_cycle;Max_cycle;Signal;HPM_P1;HPM_P2
2021/07/28 00:00:11;;;;;;;3.27;2.27;;;;;;;21.50;80.12;100610.47;5093810;28;20443;-67
2021/07/28 00:02:39;;;;;;;3.63;2.50;;;;;;;21.41;80.49;100624.53;5093594;28;20432;-67
2021/07/28 00:05:06;;;;;;;4.20;2.30;;;;;;;21.34;80.92;100616.19;5093667;28;20444;-68
2021/07/28 00:07:33;;;;;;;4.17;2.27;;;;;;;21.28;81.15;100615.66;5093527;28;20440;-68
2021/07/28 00:09:59;;;;;;;3.90;2.33;;;;;;;21.22;81.18;100614.41;5093579;28;20432;-67
2021/07/28 00:12:27;;;;;;;4.97;2.30;;;;;;;21.13;79.39;100608.38;5093440;28;20444;-68
2021/07/28 00:14:54;;;;;;;2.60;1.83;;;;;;;21.11;80.40;100607.94;5093338;28;20475;-68
2021/07/28 00:17:20;;;;;;;2.83;2.20;;;;;;;21.09;82.63;100604.78;5093435;28;20436;-67
2021/07/28 00:19:51;;;;;;;7.80;2.60;;;;;;;21.06;82.96;100602.75;5092772;28;20857;-67
2021/07/28 00:25:02;;;;;;;3.10;1.90;;;;;;;20.90;83.52;100597.44;5093234;28;20788;-67
2021/07/28 00:27:30;;;;;;;1.83;1.73;;;;;;;20.83;82.66;100595.34;5096715;28;20447;-67
2021/07/28 00:29:56;;;;;;;3.53;2.17;;;;;;;20.77;83.73;100590.53;5097406;28;20453;-67
2021/07/28 00:32:23;;;;;;;3.40;2.23;;;;;;;20.73;84.81;100593.22;5097441;28;20440;-67
2021/07/28 00:34:49;;;;;;;2.93;2.07;;;;;;;20.64;85.00;100595.44;5097325;28;20449;-67
2021/07/28 00:37:16;;;;;;;3.47;2.07;;;;;;;20.56;85.22;100583.53;5097489;28;20440;-67
2021/07/28 00:39:42;;;;;;;3.30;2.07;;;;;;;20.49;85.67;100588.09;5096895;28;20479;-67
2021/07/28 00:42:08;;;;;;;3.70;2.20;;;;;;;20.42;85.98;100584.06;5097380;28;20436;-68
2021/07/28 00:44:36;;;;;;;3.33;2.20;;;;;;;20.39;86.48;100578.50;5097256;28;20436;-67
2021/07/28 00:47:03;;;;;;;3.27;1.93;;;;;;;20.29;86.81;100588.16;5097272;28;20458;-67
2021/07/28 00:49:29;;;;;;;3.50;1.77;;;;;;;20.28;87.73;100589.31;5097154;28;20467;-67
2021/07/28 00:52:01;;;;;;;3.83;2.60;;;;;;;20.21;87.17;100591.16;5097077;28;20448;-67
2021/07/28 00:54:28;;;;;;;3.43;2.30;;;;;;;20.16;88.58;100592.25;5097003;28;20464;-68
2021/07/28 00:56:55;;;;;;;3.23;2.03;;;;;;;20.03;88.48;100588.88;5097101;28;20444;-67
2021/07/28 00:59:22;;;;;;;4.13;2.47;;;;;;;19.95;87.89;100594.59;5096892;28;20452;-68
2021/07/28 01:01:51;;;;;;;5.17;2.10;;;;;;;19.91;88.71;100589.81;5096894;28;20444;-67
2021/07/28 01:04:18;;;;;;;3.77;2.33;;;;;;;19.87;89.47;100580.72;5096116;28;21003;-68
2021/07/28 01:06:45;;;;;;;3.80;2.43;;;;;;;19.84;89.62;100589.69;5096463;28;20994;-67
2021/07/28 01:09:11;;;;;;;2.97;2.23;;;;;;;19.81;89.66;100595.13;5096788;28;20469;-67
2021/07/28 01:11:38;;;;;;;2.97;2.13;;;;;;;19.75;89.49;100582.84;5096744;28;20436;-66
2021/07/28 01:14:05;;;;;;;3.30;2.10;;;;;;;19.67;89.97;100581.13;5096680;28;20486;-67
2021/07/28 01:16:37;;;;;;;5.27;2.73;;;;;;;19.66;90.54;100585.81;5096399;28;20491;-68
2021/07/28 01:19:06;;;;;;;4.50;1.97;;;;;;;19.53;90.94;100593.38;5096656;28;20460;-67
2021/07/28 01:21:33;;;;;;;3.10;2.30;;;;;;;19.53;91.55;100590.63;5096267;28;20433;-66
2021/07/28 01:24:01;;;;;;;2.70;1.83;;;;;;;19.46;91.57;100592.44;5096421;28;20509;-65
2021/07/28 01:26:28;;;;;;;3.90;2.43;;;;;;;19.46;92.13;100576.72;5096408;28;20549;-65
2021/07/28 01:28:55;;;;;;;4.47;1.97;;;;;;;19.37;92.67;100587.94;5096362;28;20833;-68
2021/07/28 01:31:22;;;;;;;2.27;1.77;;;;;;;19.37;92.43;100584.41;5096491;28;20467;-67
2021/07/28 01:33:49;;;;;;;3.03;2.10;;;;;;;19.38;92.15;100580.50;5096328;28;20511;-66
2021/07/28 01:36:19;;;;;;;3.43;2.23;;;;;;;19.30;92.95;100578.75;5095951;28;20930;-66
2021/07/28 01:38:46;;;;;;;3.70;2.00;;;;;;;19.25;93.73;100587.28;5119429;22;21032;-71
2021/07/28 01:41:14;;;;;;;4.20;2.40;;;;;;;19.25;93.70;100592.75;5095769;28;20937;-69
2021/07/28 01:43:43;;;;;;;3.13;1.90;;;;;;;19.16;93.65;100591.00;5095834;28;20444;-69
2021/07/28 01:46:09;;;;;;;6.83;2.07;;;;;;;19.18;93.48;100587.13;5096037;28;20433;-69
2021/07/28 01:48:36;;;;;;;3.47;2.33;;;;;;;19.12;93.68;100590.16;5082810;28;20468;-69
2021/07/28 01:51:03;;;;;;;3.00;2.53;;;;;;;19.04;94.54;100590.38;5075658;28;20441;-71
2021/07/28 01:53:30;;;;;;;3.73;2.00;;;;;;;19.03;94.87;100589.53;5075541;28;20481;-69
2021/07/28 01:55:59;;;;;;;5.50;2.20;;;;;;;19.08;94.45;100588.47;5075597;28;20476;-69
2021/07/28 01:58:27;;;;;;;3.97;2.20;;;;;;;19.08;93.86;100581.06;5075499;28;20452;-69
2021/07/28 02:00:53;;;;;;;2.60;1.57;;;;;;;19.07;94.76;100586.88;5075526;28;20468;-70
2021/07/28 02:03:20;;;;;;;3.37;2.47;;;;;;;19.06;94.49;100585.28;5075369;28;20454;-70
2021/07/28 02:05:47;;;;;;;3.00;2.10;;;;;;;19.03;93.80;100573.06;5075433;28;20453;-70
2021/07/28 02:08:15;;;;;;;3.73;2.90;;;;;;;19.02;94.24;100570.69;5075390;28;20441;-70
2021/07/28 02:10:43;;;;;;;4.60;3.10;;;;;;;18.97;94.86;100570.97;5075245;28;20833;-70
2021/07/28 02:13:10;;;;;;;3.17;2.13;;;;;;;18.98;95.00;100570.59;5075408;28;20521;-70
2021/07/28 02:15:39;;;;;;;5.87;3.20;;;;;;;19.02;94.27;100571.47;5075235;28;20433;-70
2021/07/28 02:18:06;;;;;;;4.57;2.70;;;;;;;19.01;93.56;100569.09;5075192;28;20449;-70
2021/07/28 02:20:33;;;;;;;2.67;2.10;;;;;;;18.96;93.67;100567.44;5074757;28;20986;-70
2021/07/28 02:23:00;;;;;;;3.37;2.37;;;;;;;18.85;94.86;100564.44;5075120;28;20445;-70
2021/07/28 02:25:27;;;;;;;3.33;2.20;;;;;;;18.90;94.46;100558.69;5075139;28;20851;-70
2021/07/28 02:27:54;;;;;;;2.90;2.00;;;;;;;18.96;94.48;100556.47;5074761;28;20488;-69
2021/07/28 02:30:21;;;;;;;4.73;2.50;;;;;;;18.88;95.04;100560.19;5074858;28;20472;-70
2021/07/28 02:32:48;;;;;;;2.37;1.80;;;;;;;18.84;95.35;100571.09;5074863;28;20441;-70
2021/07/28 02:35:16;;;;;;;5.00;2.77;;;;;;;18.90;94.59;100558.69;5074920;28;20484;-69
2021/07/28 02:37:44;;;;;;;2.17;1.63;;;;;;;18.81;95.01;100569.03;5074515;28;20825;-70
2021/07/28 02:40:13;;;;;;;2.47;1.93;;;;;;;18.66;95.63;100567.91;5074350;28;20993;-69
2021/07/28 02:42:39;;;;;;;4.63;3.00;;;;;;;18.64;95.72;100572.97;5074340;28;20828;-69
2021/07/28 02:45:07;;;;;;;3.10;2.03;;;;;;;18.77;95.27;100570.94;5074335;28;20445;-69
2021/07/28 02:47:34;;;;;;;2.93;2.60;;;;;;;18.62;96.30;100578.00;5074512;28;20441;-70
2021/07/28 02:50:01;;;;;;;4.27;2.73;;;;;;;18.69;96.62;100582.06;5074225;28;20461;-68
2021/07/28 02:52:28;;;;;;;2.07;1.80;;;;;;;18.76;95.92;100571.28;5074450;28;20448;-69
2021/07/28 02:54:54;;;;;;;3.47;1.97;;;;;;;18.78;96.29;100567.03;5074371;28;20477;-70
2021/07/28 02:57:21;;;;;;;3.30;2.27;;;;;;;18.81;96.48;100565.50;5074329;28;20810;-69
2021/07/28 02:59:47;;;;;;;3.37;2.30;;;;;;;18.86;95.86;100566.03;5073941;28;20472;-70
2021/07/28 03:02:14;;;;;;;3.50;2.37;;;;;;;18.90;95.85;100555.13;5073942;28;20441;-69
2021/07/28 03:04:40;;;;;;;3.20;2.27;;;;;;;18.82;96.40;100548.69;5074200;28;20441;-69
2021/07/28 03:07:08;;;;;;;1.87;1.53;;;;;;;18.78;96.27;100556.06;5074237;28;20445;-69
2021/07/28 03:09:34;;;;;;;3.30;2.13;;;;;;;18.85;95.57;100558.94;5073697;28;20810;-69
2021/07/28 03:12:01;;;;;;;3.03;2.23;;;;;;;18.84;96.20;100560.09;5074037;28;20449;-69
2021/07/28 03:14:27;;;;;;;6.07;2.03;;;;;;;18.91;95.91;100556.75;5073960;28;20485;-69
2021/07/28 03:16:53;;;;;;;3.13;2.10;;;;;;;18.84;96.51;100562.84;5074039;28;20441;-70
2021/07/28 03:19:20;;;;;;;4.67;2.80;;;;;;;18.87;96.06;100562.16;5073815;28;20458;-70
2021/07/28 03:21:50;;;;;;;3.60;2.90;;;;;;;18.89;95.64;100567.25;5073940;28;20466;-70
2021/07/28 03:24:18;;;;;;;5.33;2.50;;;;;;;18.89;95.81;100570.81;5073888;28;20511;-69
2021/07/28 03:26:45;;;;;;;3.40;2.30;;;;;;;18.95;95.62;100562.28;5073506;28;20441;-70
2021/07/28 03:29:11;;;;;;;3.50;2.53;;;;;;;18.95;95.65;100567.78;5073723;28;20464;-69
2021/07/28 03:31:38;;;;;;;3.00;1.87;;;;;;;18.97;95.81;100571.78;5073758;28;20442;-67
2021/07/28 03:34:04;;;;;;;3.80;2.17;;;;;;;19.02;96.00;100584.41;5073687;28;20477;-69
2021/07/28 03:36:31;;;;;;;3.80;2.80;;;;;;;19.08;96.39;100572.00;5073620;28;20496;-70
2021/07/28 03:38:57;;;;;;;3.40;1.70;;;;;;;19.07;96.47;100578.66;5073367;28;20481;-70
2021/07/28 03:41:25;;;;;;;4.20;2.80;;;;;;;19.05;97.21;100583.72;5073605;28;20794;-69
2021/07/28 03:43:51;;;;;;;2.20;1.87;;;;;;;19.00;97.78;100587.53;5073237;28;20807;-71
2021/07/28 03:46:18;;;;;;;3.47;1.73;;;;;;;19.03;98.20;100583.25;5073539;28;20444;-71
2021/07/28 03:48:44;;;;;;;4.07;2.00;;;;;;;18.99;98.47;100568.66;5073465;28;20469;-71
2021/07/28 03:51:11;;;;;;;3.33;2.70;;;;;;;19.01;98.35;100569.91;5073529;28;20452;-70
2021/07/28 03:53:37;;;;;;;2.67;2.17;;;;;;;19.00;98.14;100584.00;5073318;28;20441;-69
2021/07/28 03:56:04;;;;;;;4.37;2.27;;;;;;;19.01;97.99;100572.66;5073376;28;20441;-70
2021/07/28 03:58:32;;;;;;;3.30;2.33;;;;;;;19.03;96.52;100583.25;5073316;28;20445;-70
2021/07/28 04:00:58;;;;;;;4.20;2.73;;;;;;;19.04;95.56;100584.88;5072734;28;20452;-70
2021/07/28 04:03:25;;;;;;;2.63;2.37;;;;;;;18.98;95.81;100595.31;5073313;28;20445;-69
2021/07/28 04:05:54;;;;;;;2.90;2.13;;;;;;;18.92;97.62;100582.25;5072973;28;20851;-70
2021/07/28 04:08:20;;;;;;;2.20;1.80;;;;;;;19.05;97.73;100589.19;5073158;28;20441;-71
2021/07/28 04:10:47;;;;;;;2.03;1.33;;;;;;;19.15;98.19;100599.63;5072992;28;20445;-71
2021/07/28 04:13:14;;;;;;;3.30;2.37;;;;;;;19.18;98.66;100598.13;5073218;28;20449;-70
2021/07/28 04:15:42;;;;;;;4.53;2.97;;;;;;;19.22;98.66;100593.50;5073130;28;20503;-69
2021/07/28 04:18:08;;;;;;;4.43;2.33;;;;;;;19.25;98.46;100579.03;5072868;28;20984;-70
2021/07/28 04:20:35;;;;;;;3.70;2.47;;;;;;;19.28;98.56;100576.38;5073100;28;20888;-69
2021/07/28 04:23:01;;;;;;;3.03;2.17;;;;;;;19.36;98.70;100578.09;5073106;28;20445;-70
2021/07/28 04:25:28;;;;;;;5.70;2.63;;;;;;;19.39;97.95;100577.41;5073081;28;20453;-70
2021/07/28 04:27:54;;;;;;;3.27;2.13;;;;;;;19.40;97.64;100578.19;5073057;28;20859;-70
2021/07/28 04:30:21;;;;;;;4.20;2.60;;;;;;;19.39;97.82;100590.34;5073019;28;20465;-71
2021/07/28 04:32:49;;;;;;;2.77;1.60;;;;;;;19.45;97.89;100585.34;5073068;28;20473;-70
2021/07/28 04:35:16;;;;;;;3.70;2.50;;;;;;;19.49;97.71;100588.97;5072937;28;20473;-70
2021/07/28 04:37:42;;;;;;;4.47;2.07;;;;;;;19.54;97.00;100591.41;5072877;28;20441;-70
2021/07/28 04:40:10;;;;;;;5.20;2.00;;;;;;;19.58;96.47;100600.53;5072547;28;20469;-70
2021/07/28 04:42:37;;;;;;;1.93;1.23;;;;;;;19.61;95.98;100605.31;5072924;28;20495;-70
2021/07/28 04:45:04;;;;;;;4.10;2.30;;;;;;;19.66;95.39;100610.56;5072969;28;20499;-69
2021/07/28 04:47:30;;;;;;;4.03;2.37;;;;;;;19.72;95.28;100605.56;5072847;28;20433;-70
2021/07/28 04:49:58;;;;;;;2.17;1.90;;;;;;;19.75;92.47;100605.63;5072774;28;20497;-70
2021/07/28 04:52:25;;;;;;;2.63;2.43;;;;;;;19.81;93.05;100603.38;5072830;28;20441;-70
2021/07/28 04:54:52;;;;;;;3.47;1.73;;;;;;;19.86;94.08;100586.59;5072861;28;20481;-69
2021/07/28 04:57:19;;;;;;;1.97;1.57;;;;;;;19.90;94.08;100585.50;5072884;28;20473;-70
2021/07/28 04:59:45;;;;;;;3.50;2.10;;;;;;;19.93;93.45;100605.19;5072391;28;20838;-71
2021/07/28 05:02:12;;;;;;;2.77;1.93;;;;;;;19.96;90.86;100602.47;5072843;28;20429;-71
2021/07/28 05:04:38;;;;;;;4.33;2.57;;;;;;;19.99;91.00;100612.75;5072757;28;20441;-71
2021/07/28 05:07:06;;;;;;;3.10;1.83;;;;;;;20.04;90.41;100608.91;5072660;28;20449;-72
2021/07/28 05:09:33;;;;;;;2.63;2.10;;;;;;;20.09;90.94;100600.34;5072322;28;21005;-72
2021/07/28 05:11:59;;;;;;;3.63;3.07;;;;;;;20.12;92.59;100596.88;5073318;28;20449;-72
2021/07/28 05:14:26;;;;;;;3.67;2.07;;;;;;;20.15;93.17;100602.47;5076282;28;20492;-72
2021/07/28 05:16:52;;;;;;;4.87;2.57;;;;;;;20.16;93.22;100589.50;5076320;28;20437;-72
2021/07/28 05:19:18;;;;;;;5.73;1.90;;;;;;;20.21;93.84;100602.94;5076190;28;20464;-74
2021/07/28 05:21:45;;;;;;;3.47;2.50;;;;;;;20.25;94.15;100601.06;5075935;28;20502;-71
2021/07/28 05:24:13;;;;;;;3.30;2.00;;;;;;;20.27;91.85;100604.22;5076249;28;20448;-72
2021/07/28 05:26:39;;;;;;;2.93;1.90;;;;;;;20.33;91.56;100608.28;5076179;28;20444;-72
2021/07/28 05:29:05;;;;;;;3.70;1.80;;;;;;;20.36;91.42;100607.56;5076064;28;20556;-72
2021/07/28 05:31:32;;;;;;;3.70;1.77;;;;;;;20.41;92.36;100603.69;5075785;28;20448;-72
2021/07/28 05:33:58;;;;;;;2.90;1.80;;;;;;;20.40;92.55;100608.38;5075942;28;20444;-73
2021/07/28 05:36:25;;;;;;;2.13;1.60;;;;;;;20.39;90.32;100617.00;5075996;28;20441;-73
2021/07/28 05:38:51;;;;;;;4.97;1.83;;;;;;;20.41;89.60;100618.25;5075694;28;20539;-71
2021/07/28 05:41:19;;;;;;;3.17;1.60;;;;;;;20.46;90.88;100632.88;5075990;28;20426;-71
2021/07/28 05:43:45;;;;;;;3.53;2.07;;;;;;;20.47;91.55;100617.94;5075848;28;20438;-73
2021/07/28 05:46:12;;;;;;;4.17;2.43;;;;;;;20.46;92.35;100617.16;5075754;28;20446;-70
2021/07/28 05:48:38;;;;;;;3.77;2.10;;;;;;;20.49;92.33;100621.91;5075672;28;20472;-71
2021/07/28 05:51:05;;;;;;;4.53;2.53;;;;;;;20.52;91.71;100614.91;5075672;28;20434;-71
2021/07/28 05:53:32;;;;;;;3.17;1.57;;;;;;;20.55;92.25;100616.94;5076439;28;20449;-72
2021/07/28 05:55:58;;;;;;;3.67;1.90;;;;;;;20.54;93.18;100591.38;5076252;28;20492;-72
2021/07/28 05:58:26;;;;;;;3.43;2.10;;;;;;;20.56;94.06;100599.25;5075536;28;20452;-72
2021/07/28 06:00:52;;;;;;;2.70;2.00;;;;;;;20.61;93.49;100601.69;5075567;28;20441;-71
2021/07/28 06:03:19;;;;;;;4.10;2.23;;;;;;;20.66;92.98;100602.16;5076384;28;20440;-73
2021/07/28 06:05:45;;;;;;;3.10;1.90;;;;;;;20.73;91.95;100600.69;5075921;28;20437;-72
2021/07/28 06:08:11;;;;;;;4.73;2.07;;;;;;;20.77;91.68;100598.78;5075429;28;20445;-71
2021/07/28 06:10:38;;;;;;;3.67;2.27;;;;;;;20.84;90.91;100591.41;5075232;28;20468;-71
2021/07/28 06:13:04;;;;;;;2.60;2.27;;;;;;;20.99;90.75;100594.41;5075337;28;20445;-72
2021/07/28 06:15:32;;;;;;;2.90;1.80;;;;;;;21.16;89.29;100596.59;5075186;28;20903;-72
2021/07/28 06:17:58;;;;;;;2.93;2.20;;;;;;;21.26;86.73;100597.94;5075212;28;20448;-72
2021/07/28 06:20:25;;;;;;;2.20;1.90;;;;;;;21.32;85.87;100605.50;5075027;28;20464;-72
2021/07/28 06:22:51;;;;;;;2.87;2.10;;;;;;;21.41;84.07;100600.50;5075088;28;20444;-72
2021/07/28 06:25:18;;;;;;;4.53;2.80;;;;;;;21.52;82.48;100600.66;5074523;28;20441;-72
2021/07/28 06:27:49;;;;;;;3.20;2.10;;;;;;;21.57;82.43;100597.56;5075049;28;20448;-72
2021/07/28 06:30:16;;;;;;;2.30;1.50;;;;;;;21.54;81.58;100605.78;5074928;28;20831;-72
2021/07/28 06:32:43;;;;;;;4.67;2.40;;;;;;;21.62;79.53;100601.94;5074605;28;20938;-71
2021/07/28 06:35:11;;;;;;;3.93;2.37;;;;;;;21.68;77.13;100614.22;5074477;28;20883;-71
2021/07/28 06:37:37;;;;;;;3.43;2.17;;;;;;;21.76;76.98;100610.38;5074547;28;20930;-72
2021/07/28 06:40:05;;;;;;;4.50;2.07;;;;;;;21.77;77.37;100611.97;5074486;28;20477;-72
2021/07/28 06:42:31;;;;;;;5.40;2.57;;;;;;;21.66;77.95;100622.09;5075141;28;20449;-70
2021/07/28 06:44:58;;;;;;;3.90;2.00;;;;;;;21.66;78.03;100627.59;5074769;28;20807;-71
2021/07/28 06:47:24;;;;;;;1.77;1.57;;;;;;;21.57;77.56;100624.34;5074637;28;20448;-72
2021/07/28 06:49:52;;;;;;;4.00;2.20;;;;;;;21.52;77.85;100621.91;5074652;28;20468;-73
2021/07/28 06:52:18;;;;;;;5.53;2.50;;;;;;;21.55;78.82;100623.91;5074828;28;20802;-69
2021/07/28 06:54:44;;;;;;;3.63;1.90;;;;;;;21.45;78.77;100633.63;5074500;28;20473;-73
2021/07/28 06:57:11;;;;;;;3.00;1.90;;;;;;;21.45;79.26;100643.88;5074420;28;20449;-70
2021/07/28 06:59:37;;;;;;;1.93;1.43;;;;;;;21.39;78.31;100641.44;5074391;28;20461;-74
2021/07/28 07:02:04;;;;;;;2.90;2.17;;;;;;;21.49;80.33;100651.00;5074125;28;20449;-72
2021/07/28 07:04:30;;;;;;;3.50;2.10;;;;;;;21.49;78.46;100658.50;5074249;28;20445;-71
2021/07/28 07:06:58;;;;;;;3.00;2.50;;;;;;;21.48;79.63;100654.16;5085255;28;20448;-71
2021/07/28 07:09:24;;;;;;;2.10;1.67;;;;;;;21.26;78.46;100664.06;5092878;28;20461;-70
2021/07/28 07:11:51;;;;;;;4.00;2.10;;;;;;;21.06;80.05;100668.84;5094080;28;20440;-71
2021/07/28 07:14:17;;;;;;;2.83;2.00;;;;;;;20.91;80.55;100660.38;5094368;28;20447;-71
2021/07/28 07:16:43;;;;;;;2.70;2.00;;;;;;;20.91;80.56;100660.38;5093904;28;21110;-72
2021/07/28 07:19:10;;;;;;;4.30;1.83;;;;;;;20.89;81.40;100657.22;5093767;28;20487;-72
2021/07/28 07:21:36;;;;;;;2.50;1.80;;;;;;;20.88;81.26;100660.31;5094273;28;20448;-71
2021/07/28 07:24:05;;;;;;;2.20;1.30;;;;;;;20.90;81.33;100656.03;5093836;28;20436;-71
2021/07/28 07:26:31;;;;;;;4.70;1.60;;;;;;;20.97;81.40;100663.59;5094104;28;20447;-72
2021/07/28 07:28:58;;;;;;;2.50;1.60;;;;;;;20.95;81.95;100667.91;5094049;28;20471;-71
2021/07/28 07:31:24;;;;;;;2.47;1.70;;;;;;;21.03;82.60;100664.91;5094081;28;20447;-71
2021/07/28 07:33:50;;;;;;;1.80;1.43;;;;;;;21.02;81.67;100654.22;5094043;28;20452;-71
2021/07/28 07:36:19;;;;;;;2.57;1.70;;;;;;;21.11;82.60;100654.75;5093120;28;20484;-71
2021/07/28 07:41:12;;;;;;;9.10;2.00;;;;;;;21.22;83.86;100650.22;5115646;22;21011;-74
2021/07/28 07:43:38;;;;;;;3.97;1.70;;;;;;;21.10;81.53;100647.69;5093495;28;20213;-74
2021/07/28 07:46:05;;;;;;;3.03;1.70;;;;;;;21.09;82.46;100643.34;5093500;28;20958;-74
2021/07/28 07:48:32;;;;;;;2.90;1.50;;;;;;;21.15;82.63;100655.63;5093366;28;20945;-74
2021/07/28 07:50:58;;;;;;;3.80;1.63;;;;;;;21.31;82.12;100650.78;5093627;28;20468;-74
2021/07/28 07:53:25;;;;;;;4.40;1.97;;;;;;;21.58;81.81;100662.56;5093350;28;20929;-74
2021/07/28 07:55:51;;;;;;;2.13;1.27;;;;;;;21.72;78.99;100666.66;5093500;28;20511;-74
2021/07/28 07:58:19;;;;;;;3.03;1.83;;;;;;;21.78;79.97;100659.63;5093271;28;20960;-74
2021/07/28 08:00:45;;;;;;;1.50;1.37;;;;;;;21.80;79.22;100658.09;5093540;28;20517;-73
2021/07/28 08:03:12;;;;;;;2.90;1.50;;;;;;;21.84;79.79;100660.91;5093500;28;20448;-73
2021/07/28 08:05:38;;;;;;;2.87;1.63;;;;;;;21.90;79.68;100665.69;5093514;28;20824;-74
2021/07/28 08:08:05;;;;;;;2.17;1.43;;;;;;;21.71;79.19;100657.59;5099651;27;20451;-74
2021/07/28 08:10:32;;;;;;;2.30;1.40;;;;;;;21.54;79.42;100663.69;5093354;28;20472;-74
2021/07/28 08:12:58;;;;;;;3.00;1.73;;;;;;;21.29;81.51;100647.56;5093525;28;20444;-74
2021/07/28 08:15:27;;;;;;;2.70;1.80;;;;;;;21.09;83.40;100646.09;5093270;28;20480;-74
2021/07/28 08:17:53;;;;;;;2.07;1.30;;;;;;;20.94;84.51;100658.03;5093019;28;20964;-74
2021/07/28 08:20:19;;;;;;;2.67;1.57;;;;;;;20.92;86.00;100644.66;5093163;28;20460;-73
2021/07/28 08:22:46;;;;;;;2.60;1.50;;;;;;;21.05;85.64;100642.47;5093299;28;20545;-74
2021/07/28 08:25:13;;;;;;;2.70;1.60;;;;;;;21.19;84.59;100637.19;5093264;28;20436;-74
2021/07/28 08:27:39;;;;;;;2.77;1.83;;;;;;;21.28;83.49;100629.44;5093255;28;20451;-74
2021/07/28 08:30:07;;;;;;;2.00;1.40;;;;;;;21.35;82.30;100623.28;5092869;28;21005;-74
2021/07/28 08:32:35;;;;;;;3.97;1.93;;;;;;;21.37;85.10;100632.75;5093290;28;20448;-74
2021/07/28 08:35:01;;;;;;;2.10;1.47;;;;;;;21.44;84.47;100636.78;5093095;28;20447;-73
2021/07/28 08:37:27;;;;;;;5.27;1.37;;;;;;;21.45;84.28;100638.34;5092815;28;20976;-74
2021/07/28 08:39:54;;;;;;;1.83;1.60;;;;;;;21.59;83.97;100638.53;5092765;28;20472;-74
2021/07/28 08:42:21;;;;;;;1.37;1.27;;;;;;;21.61;82.48;100637.00;5093097;28;20449;-74
2021/07/28 08:44:48;;;;;;;2.20;1.67;;;;;;;21.71;79.81;100649.31;5093064;28;20452;-74
2021/07/28 08:47:18;;;;;;;1.60;1.40;;;;;;;21.80;78.05;100641.56;5094236;28;20479;-74
2021/07/28 08:49:46;;;;;;;2.40;1.57;;;;;;;21.91;78.06;100634.22;5097478;28;20460;-74
2021/07/28 08:52:14;;;;;;;4.30;2.00;;;;;;;21.92;80.05;100623.97;5096991;28;20448;-74
2021/07/28 08:54:40;;;;;;;2.20;1.40;;;;;;;21.91;77.50;100622.38;5096989;28;20497;-74
2021/07/28 08:57:11;;;;;;;2.40;1.67;;;;;;;21.94;78.56;100629.09;5096538;28;20858;-74
2021/07/28 08:59:37;;;;;;;3.20;1.60;;;;;;;21.89;77.06;100625.50;5096847;28;20460;-74
2021/07/28 09:02:04;;;;;;;2.23;1.30;;;;;;;21.73;77.42;100632.41;5096884;28;20847;-74
2021/07/28 09:04:31;;;;;;;2.80;1.10;;;;;;;21.88;77.22;100634.97;5096854;28;20629;-74
2021/07/28 09:06:59;;;;;;;3.27;1.73;;;;;;;22.01;75.63;100624.47;5096810;28;20432;-74
2021/07/28 09:09:25;;;;;;;2.60;1.63;;;;;;;22.17;77.11;100624.25;5096367;28;20455;-74
2021/07/28 09:11:53;;;;;;;1.90;1.30;;;;;;;22.27;75.42;100637.38;5096715;28;20436;-74
2021/07/28 09:14:22;;;;;;;1.80;1.27;;;;;;;22.39;74.74;100625.25;5096681;28;20428;-74
2021/07/28 09:16:49;;;;;;;2.80;1.67;;;;;;;22.42;75.21;100624.50;5096288;28;21035;-74
2021/07/28 09:19:37;;;;;;;2.43;1.40;;;;;;;22.55;75.74;100622.25;5096521;28;20455;-74
2021/07/28 09:22:06;;;;;;;4.33;2.40;;;;;;;22.41;75.04;100620.16;5096571;28;20427;-73
2021/07/28 09:24:33;;;;;;;3.33;1.53;;;;;;;22.50;77.95;100617.88;5096476;28;20435;-74
2021/07/28 09:26:59;;;;;;;2.03;1.30;;;;;;;22.62;75.62;100614.00;5096444;28;20447;-74
2021/07/28 09:29:27;;;;;;;1.53;1.30;;;;;;;22.77;75.29;100618.47;5096301;28;20518;-74
2021/07/28 09:31:56;;;;;;;2.67;1.60;;;;;;;22.89;74.15;100620.16;5096072;28;20948;-74
2021/07/28 09:34:34;;;;;;;2.77;1.77;;;;;;;22.91;73.16;100623.34;5096246;28;20432;-74
2021/07/28 09:37:04;;;;;;;2.23;1.40;;;;;;;23.07;74.25;100626.63;5096188;28;20491;-74
2021/07/28 09:39:33;;;;;;;2.50;1.40;;;;;;;23.15;73.44;100625.50;5095920;28;20468;-73
2021/07/28 09:42:01;;;;;;;3.40;1.80;;;;;;;23.34;75.21;100632.69;5096180;28;20441;-74
2021/07/28 09:44:29;;;;;;;4.50;1.63;;;;;;;23.46;71.45;100630.75;5095733;28;20868;-74
2021/07/28 09:47:10;;;;;;;1.97;1.37;;;;;;;23.59;70.41;100629.25;5095720;28;20514;-74
2021/07/28 09:49:38;;;;;;;1.53;1.10;;;;;;;23.69;69.67;100639.59;5095901;28;20464;-74
2021/07/28 09:52:25;;;;;;;2.43;1.73;;;;;;;23.81;68.66;100630.94;5095880;28;20436;-74
2021/07/28 09:54:55;;;;;;;2.30;1.50;;;;;;;23.96;69.33;100636.53;5095910;28;20455;-74
2021/07/28 09:57:23;;;;;;;6.30;1.50;;;;;;;24.11;67.61;100630.63;5095747;28;20476;-74
2021/07/28 09:59:53;;;;;;;2.37;1.70;;;;;;;24.19;63.85;100634.22;5094779;28;20463;-75
2021/07/28 10:02:21;;;;;;;2.00;1.37;;;;;;;24.19;62.23;100633.41;5095807;28;20463;-74
2021/07/28 10:04:49;;;;;;;3.57;1.77;;;;;;;24.27;65.46;100632.25;5095681;28;20448;-74
2021/07/28 10:07:17;;;;;;;3.90;1.20;;;;;;;24.37;65.08;100637.81;5095703;28;20470;-74
2021/07/28 10:09:50;;;;;;;1.37;1.20;;;;;;;24.41;62.21;100648.91;5102318;27;20480;-74
2021/07/28 10:12:18;;;;;;;1.20;0.77;;;;;;;24.48;63.48;100637.03;5095619;28;20482;-74
2021/07/28 10:14:46;;;;;;;2.93;1.50;;;;;;;24.51;63.30;100639.03;5095662;28;20436;-74
2021/07/28 10:17:13;;;;;;;1.70;1.37;;;;;;;24.49;62.03;100628.34;5095348;28;20487;-74
2021/07/28 10:19:40;;;;;;;2.40;1.43;;;;;;;24.49;61.74;100633.09;5095324;28;20465;-74
2021/07/28 10:22:07;;;;;;;2.60;1.90;;;;;;;24.61;62.25;100641.81;5095324;28;20503;-74
2021/07/28 10:24:34;;;;;;;2.30;1.70;;;;;;;24.64;59.80;100624.38;5095277;28;20472;-74
2021/07/28 10:27:03;;;;;;;3.20;1.80;;;;;;;24.59;59.42;100613.69;5095254;28;20448;-74
2021/07/28 10:29:31;;;;;;;2.33;1.47;;;;;;;24.52;60.00;100612.91;5094811;28;20981;-74
2021/07/28 10:31:57;;;;;;;1.80;1.43;;;;;;;24.60;61.00;100615.28;5095224;28;20456;-74
2021/07/28 10:34:26;;;;;;;2.77;1.17;;;;;;;24.75;60.89;100598.66;5095067;28;20439;-74
2021/07/28 10:36:54;;;;;;;4.07;2.40;;;;;;;24.85;60.10;100603.41;5094999;28;20487;-74
2021/07/28 10:39:43;;;;;;;1.90;1.33;;;;;;;24.84;59.28;100607.38;5094691;28;20476;-74
2021/07/28 10:42:12;;;;;;;1.77;1.50;;;;;;;24.89;58.25;100618.03;5095021;28;20464;-74
2021/07/28 10:45:04;;;;;;;1.33;1.23;;;;;;;24.87;58.08;100618.41;5094974;28;20445;-75
2021/07/28 10:47:42;;;;;;;1.50;1.33;;;;;;;24.70;58.32;100619.22;5094987;28;20429;-74
2021/07/28 10:50:29;;;;;;;2.10;1.70;;;;;;;24.74;58.58;100622.00;5094803;28;20484;-74
2021/07/28 10:52:58;;;;;;;1.50;1.10;;;;;;;24.88;60.16;100624.75;5094419;28;20523;-74
2021/07/28 10:55:27;;;;;;;1.47;1.20;;;;;;;25.00;61.11;100629.88;5094345;28;20819;-74
2021/07/28 10:58:26;;;;;;;2.10;1.40;;;;;;;25.00;59.03;100629.88;5094491;28;21005;-74
2021/07/28 11:00:58;;;;;;;1.77;1.30;;;;;;;25.12;60.04;100623.19;5094676;28;20487;-74
2021/07/28 11:03:40;;;;;;;2.30;1.40;;;;;;;25.20;60.61;100633.06;5094290;28;20506;-74
2021/07/28 11:06:18;;;;;;;1.77;1.23;;;;;;;25.29;59.09;100627.88;5094550;28;20441;-73
2021/07/28 11:08:46;;;;;;;2.80;1.73;;;;;;;25.28;58.94;100631.84;5094484;28;20428;-74
2021/07/28 11:11:28;;;;;;;4.00;1.57;;;;;;;25.26;57.90;100631.44;5093968;28;20938;-75
2021/07/28 11:13:55;;;;;;;3.47;1.57;;;;;;;25.30;59.05;100635.00;5094424;28;20431;-74
2021/07/28 11:16:22;;;;;;;3.23;1.90;;;;;;;25.33;59.88;100627.88;5094253;28;20691;-74
2021/07/28 11:18:51;;;;;;;1.67;1.20;;;;;;;25.41;61.09;100623.88;5094211;28;20440;-74
2021/07/28 11:21:19;;;;;;;2.70;2.00;;;;;;;25.50;60.43;100626.22;5094352;28;20441;-74
2021/07/28 11:23:49;;;;;;;1.37;1.23;;;;;;;25.24;58.54;100625.53;5094453;28;20869;-74
2021/07/28 11:26:21;;;;;;;2.30;1.70;;;;;;;25.49;59.75;100622.66;5093826;28;20810;-74
2021/07/28 11:28:48;;;;;;;1.67;1.40;;;;;;;25.67;58.59;100625.34;5094156;28;20483;-74
2021/07/28 11:31:15;;;;;;;2.27;1.37;;;;;;;25.43;57.23;100618.72;5094134;28;20444;-73